createdAt,value
2023-04-10T00:01:07.180Z,-0.29
2023-04-10T00:03:37.848Z,-0.35
2023-04-10T00:06:04.426Z,-0.43
2023-04-10T00:08:30.735Z,-0.14
2023-04-10T00:10:57.138Z,-0.24
2023-04-10T00:13:23.421Z,-0.11
2023-04-10T00:15:50.757Z,-0.22
2023-04-10T00:18:17.090Z,-0.34
2023-04-10T00:20:43.778Z,-0.34
2023-04-10T00:23:10.255Z,-0.27
2023-04-10T00:25:36.548Z,-0.25
2023-04-10T00:28:03.047Z,-0.09
2023-04-10T00:30:29.337Z,-0.18
2023-04-10T00:32:56.026Z,-0.25
2023-04-10T00:35:22.380Z,-0.33
2023-04-10T00:37:50.233Z,-0.38
2023-04-10T00:40:16.807Z,-0.41
2023-04-10T00:42:43.215Z,-0.47
2023-04-10T00:45:11.895Z,-0.47
2023-04-10T00:47:38.532Z,-0.46
2023-04-10T00:50:05.377Z,-0.49
2023-04-10T00:52:32.253Z,-0.55
2023-04-10T00:55:05.662Z,-0.63
2023-04-10T00:57:33.278Z,-0.67
2023-04-10T01:00:00.319Z,-0.74
2023-04-10T01:02:27.107Z,-0.77
2023-04-10T01:04:53.457Z,-0.82
2023-04-10T01:07:27.287Z,-0.84
2023-04-10T01:10:13.193Z,-0.79
2023-04-10T01:12:42.562Z,-0.75
2023-04-10T01:15:14.945Z,-0.69
2023-04-10T01:17:47.449Z,-0.77
2023-04-10T01:20:16.458Z,-0.76
2023-04-10T01:22:58.114Z,-0.83
2023-04-10T01:25:33.713Z,-0.90
2023-04-10T01:28:01.024Z,-1.01
2023-04-10T01:30:27.982Z,-1.05
2023-04-10T01:32:57.919Z,-1.34
2023-04-10T01:35:24.337Z,-1.20
2023-04-10T01:37:51.941Z,-1.25
2023-04-10T01:40:19.398Z,-1.31
2023-04-10T01:42:52.967Z,-1.31
2023-04-10T01:45:21.021Z,-1.37
2023-04-10T01:47:47.514Z,-1.36
2023-04-10T01:50:13.983Z,-1.43
2023-04-10T01:52:41.441Z,-1.30
2023-04-10T01:55:08.135Z,-1.40
2023-04-10T01:57:35.975Z,-1.47
2023-04-10T02:00:03.185Z,-1.53
2023-04-10T02:02:33.663Z,-1.59
2023-04-10T02:05:00.310Z,-1.68
2023-04-10T02:07:32.528Z,-1.74
2023-04-10T02:10:34.438Z,-1.76
2023-04-10T02:13:03.781Z,-1.81
2023-04-10T02:15:32.330Z,-1.87
2023-04-10T02:17:59.984Z,-1.83
2023-04-10T02:20:26.600Z,-1.85
2023-04-10T02:22:53.371Z,-1.87
2023-04-10T02:25:19.633Z,-1.88
2023-04-10T02:27:49.044Z,-1.91
2023-04-10T02:30:22.186Z,-1.98
2023-04-10T02:32:48.554Z,-1.92
2023-04-10T02:35:14.897Z,-1.89
2023-04-10T02:37:50.613Z,-1.75
2023-04-10T02:40:16.886Z,-1.53
2023-04-10T02:42:43.170Z,-1.54
2023-04-10T02:45:10.215Z,-1.44
2023-04-10T02:47:36.667Z,-1.64
2023-04-10T02:50:02.997Z,-1.76
2023-04-10T02:52:29.363Z,-1.76
2023-04-10T02:54:55.631Z,-1.77
2023-04-10T02:57:22.555Z,-1.79
2023-04-10T02:59:52.193Z,-1.81
2023-04-10T03:02:18.604Z,-1.90
2023-04-10T03:04:44.966Z,-1.95
2023-04-10T03:07:11.315Z,-1.94
2023-04-10T03:09:37.614Z,-1.97
2023-04-10T03:12:03.915Z,-2.01
2023-04-10T03:14:30.426Z,-2.06
2023-04-10T03:16:56.720Z,-2.09
2023-04-10T03:19:22.998Z,-2.09
2023-04-10T03:21:49.310Z,-2.18
2023-04-10T03:24:16.541Z,-2.24
2023-04-10T03:26:43.005Z,-2.34
2023-04-10T03:29:09.285Z,-2.37
2023-04-10T03:31:35.587Z,-2.39
2023-04-10T03:34:01.985Z,-2.41
2023-04-10T03:36:29.324Z,-2.39
2023-04-10T03:38:55.631Z,-2.36
2023-04-10T03:41:25.447Z,-2.35
2023-04-10T03:43:52.233Z,-2.34
2023-04-10T03:46:18.782Z,-2.40
2023-04-10T03:48:45.208Z,-2.47
2023-04-10T03:51:11.515Z,-2.47
2023-04-10T03:53:37.835Z,-2.49
2023-04-10T03:56:04.313Z,-2.55
2023-04-10T03:58:30.634Z,-2.53
2023-04-10T04:00:57.079Z,-2.62
2023-04-10T04:03:23.892Z,-2.69
2023-04-10T04:05:50.899Z,-2.72
2023-04-10T04:08:17.179Z,-2.73
2023-04-10T04:10:43.459Z,-2.62
2023-04-10T04:13:09.745Z,-2.44
2023-04-10T04:15:36.072Z,-2.44
2023-04-10T04:18:02.484Z,-2.55
2023-04-10T04:20:28.774Z,-2.66
2023-04-10T04:22:55.101Z,-2.64
2023-04-10T04:25:21.426Z,-2.61
2023-04-10T04:27:47.733Z,-2.57
2023-04-10T04:30:14.034Z,-2.58
2023-04-10T04:33:04.286Z,-2.58
2023-04-10T04:35:30.917Z,-2.58
2023-04-10T04:37:57.256Z,-2.47
2023-04-10T04:40:23.524Z,-2.47
2023-04-10T04:42:49.816Z,-2.59
2023-04-10T04:45:16.464Z,-2.58
2023-04-10T04:47:42.749Z,-2.52
2023-04-10T04:50:09.440Z,-2.51
2023-04-10T04:52:35.824Z,-2.55
2023-04-10T04:55:02.102Z,-2.63
2023-04-10T04:57:31.407Z,-2.62
2023-04-10T04:59:57.712Z,-2.64
2023-04-10T05:02:24.148Z,-2.69
2023-04-10T05:04:50.635Z,-2.70
2023-04-10T05:07:16.927Z,-2.63
2023-04-10T05:09:43.297Z,-2.53
2023-04-10T05:12:09.610Z,-2.45
2023-04-10T05:14:36.004Z,-2.26
2023-04-10T05:17:03.631Z,-2.27
2023-04-10T05:19:30.188Z,-2.25
2023-04-10T05:21:56.624Z,-2.24
2023-04-10T05:24:22.912Z,-2.17
2023-04-10T05:26:49.193Z,-2.00
2023-04-10T05:29:15.635Z,-1.75
2023-04-10T05:31:41.914Z,-1.53
2023-04-10T05:34:08.224Z,-1.44
2023-04-10T05:36:34.951Z,-1.40
2023-04-10T05:39:01.258Z,-1.31
2023-04-10T05:41:27.558Z,-1.24
2023-04-10T05:43:53.873Z,-1.01
2023-04-10T05:46:20.179Z,-0.97
2023-04-10T05:48:46.557Z,-0.92
2023-04-10T05:51:12.854Z,-0.88
2023-04-10T05:53:39.126Z,-0.84
2023-04-10T05:56:05.730Z,-0.72
2023-04-10T05:58:32.017Z,-0.61
2023-04-10T06:00:58.547Z,-0.55
2023-04-10T06:03:27.296Z,-0.48
2023-04-10T06:05:54.010Z,-0.29
2023-04-10T06:08:20.347Z,-0.09
2023-04-10T06:10:46.819Z,0.09
2023-04-10T06:13:14.901Z,0.24
2023-04-10T06:15:42.265Z,0.36
2023-04-10T06:18:09.081Z,0.48
2023-04-10T06:20:35.401Z,0.61
2023-04-10T06:23:02.420Z,0.69
2023-04-10T06:25:28.934Z,0.89
2023-04-10T06:27:55.344Z,0.99
2023-04-10T06:30:21.624Z,1.20
2023-04-10T06:32:47.910Z,1.39
2023-04-10T06:35:14.652Z,1.40
2023-04-10T06:37:40.998Z,1.54
2023-04-10T06:40:08.806Z,1.65
2023-04-10T06:42:41.059Z,1.76
2023-04-10T06:45:07.775Z,1.84
2023-04-10T06:47:34.293Z,1.92
2023-04-10T06:50:00.684Z,2.02
2023-04-10T06:52:27.173Z,2.12
2023-04-10T06:54:53.464Z,2.32
2023-04-10T06:57:19.763Z,2.39
2023-04-10T06:59:46.093Z,2.55
2023-04-10T07:02:12.462Z,2.64
2023-04-10T07:04:38.814Z,2.77
2023-04-10T07:07:09.662Z,2.91
2023-04-10T07:09:36.202Z,2.99
2023-04-10T07:12:02.482Z,3.10
2023-04-10T07:14:28.877Z,3.33
2023-04-10T07:16:55.263Z,3.51
2023-04-10T07:19:21.528Z,3.54
2023-04-10T07:21:50.817Z,3.65
2023-04-10T07:24:17.586Z,3.82
2023-04-10T07:26:44.401Z,3.88
2023-04-10T07:29:10.840Z,4.08
2023-04-10T07:31:44.714Z,4.29
2023-04-10T07:34:12.060Z,4.43
2023-04-10T07:36:38.441Z,4.64
2023-04-10T07:39:04.770Z,4.67
2023-04-10T07:41:31.164Z,4.92
2023-04-10T07:43:57.506Z,4.84
2023-04-10T07:46:23.982Z,4.96
2023-04-10T07:48:50.704Z,5.11
2023-04-10T07:51:16.989Z,5.29
2023-04-10T07:53:43.342Z,5.40
2023-04-10T07:56:15.513Z,5.65
2023-04-10T07:58:41.792Z,5.65
2023-04-10T08:01:08.062Z,6.16
2023-04-10T08:03:41.343Z,6.08
2023-04-10T08:06:11.598Z,6.23
2023-04-10T08:08:38.734Z,6.30
2023-04-10T08:11:07.852Z,6.64
2023-04-10T08:13:34.119Z,6.67
2023-04-10T08:16:00.686Z,6.71
2023-04-10T08:18:27.068Z,6.93
2023-04-10T08:20:53.364Z,6.98
2023-04-10T08:23:29.835Z,6.99
2023-04-10T08:25:56.112Z,7.25
2023-04-10T08:28:22.384Z,7.26
2023-04-10T08:30:48.688Z,7.50
2023-04-10T08:33:15.461Z,7.60
2023-04-10T08:35:41.823Z,7.58
2023-04-10T08:38:13.982Z,7.72
2023-04-10T08:40:40.881Z,7.69
2023-04-10T08:43:07.197Z,7.76
2023-04-10T08:45:33.661Z,7.94
2023-04-10T08:48:05.330Z,7.07
2023-04-10T08:50:33.344Z,7.93
2023-04-10T08:53:03.406Z,8.31
2023-04-10T08:55:29.680Z,8.29
2023-04-10T08:58:01.264Z,8.42
2023-04-10T09:00:28.573Z,8.56
2023-04-10T09:02:58.176Z,8.67
2023-04-10T09:05:26.743Z,9.05
2023-04-10T09:07:53.038Z,9.16
2023-04-10T09:10:19.371Z,9.34
2023-04-10T09:12:46.554Z,9.63
2023-04-10T09:15:13.890Z,9.70
2023-04-10T09:17:59.147Z,9.65
2023-04-10T09:20:26.505Z,9.89
2023-04-10T09:22:53.252Z,10.05
2023-04-10T09:25:30.384Z,10.18
2023-04-10T09:28:04.026Z,10.25
2023-04-10T09:30:40.351Z,10.40
2023-04-10T09:33:30.102Z,10.56
2023-04-10T09:35:57.899Z,10.70
2023-04-10T09:38:25.705Z,10.93
2023-04-10T09:40:53.644Z,10.88
2023-04-10T09:43:22.884Z,10.91
2023-04-10T09:45:52.183Z,11.04
2023-04-10T09:48:18.884Z,11.27
2023-04-10T09:50:45.334Z,11.34
2023-04-10T09:53:12.867Z,11.70
2023-04-10T09:55:39.412Z,11.90
2023-04-10T09:58:06.445Z,11.87
2023-04-10T10:00:42.743Z,11.96
2023-04-10T10:03:10.794Z,12.18
2023-04-10T10:05:39.284Z,12.31
2023-04-10T10:08:05.931Z,12.44
2023-04-10T10:10:32.690Z,12.59
2023-04-10T10:13:03.366Z,12.87
2023-04-10T10:15:50.140Z,12.92
2023-04-10T10:18:27.350Z,13.09
2023-04-10T10:20:53.692Z,13.18
2023-04-10T10:23:19.976Z,13.35
2023-04-10T10:25:48.668Z,13.42
2023-04-10T10:28:16.402Z,13.58
2023-04-10T10:30:43.045Z,13.50
2023-04-10T10:33:10.351Z,13.32
2023-04-10T10:35:37.532Z,13.24
2023-04-10T10:38:04.466Z,13.39
2023-04-10T10:40:30.777Z,13.19
2023-04-10T10:43:08.393Z,13.49
2023-04-10T10:45:38.571Z,13.04
2023-04-10T10:48:04.982Z,13.11
2023-04-10T10:51:11.746Z,13.32
2023-04-10T10:53:39.665Z,13.59
2023-04-10T10:56:23.565Z,13.71
2023-04-10T10:59:01.974Z,13.61
2023-04-10T11:01:28.593Z,13.39
2023-04-10T11:03:55.148Z,13.30
2023-04-10T11:06:42.914Z,12.96
2023-04-10T11:09:30.502Z,13.10
2023-04-10T11:11:58.990Z,12.99
2023-04-10T11:14:25.487Z,12.95
2023-04-10T11:16:51.798Z,13.25
2023-04-10T11:19:22.644Z,13.31
2023-04-10T11:21:59.342Z,13.13
2023-04-10T11:24:26.454Z,13.28
2023-04-10T11:26:52.730Z,13.47
2023-04-10T11:29:28.235Z,13.87
2023-04-10T11:31:58.633Z,13.83
2023-04-10T11:34:25.328Z,14.19
2023-04-10T11:36:53.246Z,13.83
2023-04-10T11:39:20.420Z,14.07
2023-04-10T11:41:50.790Z,14.24
2023-04-10T11:44:18.241Z,14.22
2023-04-10T11:46:47.184Z,14.04
2023-04-10T11:49:17.776Z,14.37
2023-04-10T11:51:46.126Z,14.40
2023-04-10T11:54:16.546Z,14.25
2023-04-10T11:56:44.309Z,14.03
2023-04-10T11:59:13.259Z,14.18
2023-04-10T12:01:43.509Z,14.37
2023-04-10T12:04:14.386Z,14.49
2023-04-10T12:06:45.582Z,14.63
2023-04-10T12:09:16.329Z,14.50
2023-04-10T12:11:50.755Z,14.31
2023-04-10T12:14:17.102Z,14.57
2023-04-10T12:16:43.919Z,14.55
2023-04-10T12:19:11.004Z,14.68
2023-04-10T12:21:37.941Z,15.09
2023-04-10T12:24:04.318Z,15.32
2023-04-10T12:26:30.686Z,15.28
2023-04-10T12:28:59.002Z,15.45
2023-04-10T12:31:32.292Z,16.08
2023-04-10T12:34:02.164Z,15.97
2023-04-10T12:36:30.084Z,15.88
2023-04-10T12:38:57.257Z,15.73
2023-04-10T12:41:24.972Z,15.70
2023-04-10T12:43:51.916Z,15.48
2023-04-10T12:46:25.962Z,15.57
2023-04-10T12:48:52.715Z,15.75
2023-04-10T12:51:19.482Z,15.50
2023-04-10T12:53:46.192Z,15.08
2023-04-10T12:56:14.747Z,15.33
2023-04-10T12:58:42.468Z,15.56
2023-04-10T13:01:09.692Z,15.49
2023-04-10T13:03:36.764Z,15.41
2023-04-10T13:06:04.960Z,15.37
2023-04-10T13:08:32.573Z,15.15
2023-04-10T13:11:08.424Z,15.18
2023-04-10T13:13:34.739Z,15.44
2023-04-10T13:16:01.268Z,15.45
2023-04-10T13:18:27.810Z,15.51
2023-04-10T13:20:54.127Z,15.64
2023-04-10T13:23:20.432Z,15.84
2023-04-10T13:25:46.869Z,15.55
2023-04-10T13:28:13.200Z,15.87
2023-04-10T13:30:40.325Z,15.87
2023-04-10T13:33:07.574Z,15.78
2023-04-10T13:35:34.000Z,15.62
2023-04-10T13:38:00.435Z,15.66
2023-04-10T13:40:26.989Z,15.69
2023-04-10T13:42:55.472Z,15.88
2023-04-10T13:45:21.832Z,16.00
2023-04-10T13:47:48.205Z,16.24
2023-04-10T13:50:14.581Z,16.20
2023-04-10T13:52:40.867Z,16.08
2023-04-10T13:55:07.464Z,16.15
2023-04-10T13:57:34.259Z,15.75
2023-04-10T14:00:01.165Z,15.68
2023-04-10T14:02:27.571Z,15.82
2023-04-10T14:04:53.920Z,15.38
2023-04-10T14:07:20.309Z,15.59
2023-04-10T14:09:47.179Z,15.51
2023-04-10T14:12:16.240Z,15.80
2023-04-10T14:14:44.836Z,15.81
2023-04-10T14:17:11.120Z,16.06
2023-04-10T14:19:37.725Z,16.04
2023-04-10T14:22:04.048Z,16.28
2023-04-10T14:24:30.371Z,15.91
2023-04-10T14:27:00.622Z,16.01
2023-04-10T14:29:37.301Z,16.13
2023-04-10T14:32:07.346Z,15.95
2023-04-10T14:34:33.706Z,16.14
2023-04-10T14:37:00.308Z,16.04
2023-04-10T14:39:26.918Z,16.02
2023-04-10T14:41:53.306Z,15.99
2023-04-10T14:44:19.635Z,15.94
2023-04-10T14:46:46.203Z,16.13
2023-04-10T14:49:13.082Z,16.06
2023-04-10T14:51:39.409Z,15.95
2023-04-10T14:54:06.066Z,15.93
2023-04-10T14:56:32.920Z,16.08
2023-04-10T14:59:06.840Z,15.99
2023-04-10T15:01:33.715Z,16.02
2023-04-10T15:04:00.177Z,15.99
2023-04-10T15:06:28.153Z,15.92
2023-04-10T15:08:55.633Z,15.95
2023-04-10T15:11:21.949Z,15.51
2023-04-10T15:13:48.252Z,15.72
2023-04-10T15:16:14.587Z,15.61
2023-04-10T15:18:40.934Z,15.62
2023-04-10T15:21:07.400Z,15.45
2023-04-10T15:23:36.688Z,15.62
2023-04-10T15:26:03.462Z,15.54
2023-04-10T15:28:29.767Z,15.45
2023-04-10T15:30:57.634Z,16.04
2023-04-10T15:33:24.083Z,15.67
2023-04-10T15:35:50.783Z,15.69
2023-04-10T15:38:17.131Z,15.72
2023-04-10T15:40:43.695Z,15.88
2023-04-10T15:43:10.001Z,15.44
2023-04-10T15:45:37.149Z,15.36
2023-04-10T15:48:04.514Z,15.27
2023-04-10T15:50:31.090Z,15.63
2023-04-10T15:52:57.388Z,15.20
2023-04-10T15:55:23.645Z,15.23
2023-04-10T15:57:49.940Z,15.25
2023-04-10T16:00:16.380Z,14.88
2023-04-10T16:02:42.957Z,15.01
2023-04-10T16:05:09.680Z,14.88
2023-04-10T16:07:38.240Z,14.87
2023-04-10T16:10:11.391Z,14.82
2023-04-10T16:12:38.265Z,14.75
2023-04-10T16:15:05.582Z,14.86
2023-04-10T16:17:31.971Z,14.79
2023-04-10T16:19:58.320Z,14.52
2023-04-10T16:22:24.644Z,14.60
2023-04-10T16:24:54.352Z,14.44
2023-04-10T16:27:20.859Z,14.39
2023-04-10T16:29:47.133Z,14.32
2023-04-10T16:32:13.419Z,14.27
2023-04-10T16:34:39.724Z,14.22
2023-04-10T16:37:06.027Z,14.16
2023-04-10T16:39:32.316Z,14.12
2023-04-10T16:41:59.989Z,14.12
2023-04-10T16:44:26.329Z,13.95
2023-04-10T16:46:52.742Z,13.97
2023-04-10T16:49:19.068Z,13.98
2023-04-10T16:51:45.333Z,13.95
2023-04-10T16:54:12.009Z,13.98
2023-04-10T16:56:38.280Z,13.89
2023-04-10T16:59:04.632Z,13.46
2023-04-10T17:01:31.498Z,13.53
2023-04-10T17:03:57.967Z,13.22
2023-04-10T17:06:24.258Z,13.11
2023-04-10T17:08:50.606Z,12.90
2023-04-10T17:11:17.001Z,12.87
2023-04-10T17:13:43.376Z,12.81
2023-04-10T17:16:09.897Z,12.77
2023-04-10T17:18:36.695Z,12.66
2023-04-10T17:21:03.049Z,12.40
2023-04-10T17:23:29.645Z,12.35
2023-04-10T17:25:56.046Z,12.34
2023-04-10T17:28:22.370Z,12.16
2023-04-10T17:30:48.744Z,11.97
2023-04-10T17:33:15.050Z,11.88
2023-04-10T17:35:41.788Z,11.65
2023-04-10T17:38:08.116Z,11.45
2023-04-10T17:40:34.514Z,11.53
2023-04-10T17:43:00.800Z,11.57
2023-04-10T17:45:27.221Z,11.39
2023-04-10T17:47:53.959Z,11.08
2023-04-10T17:50:20.539Z,10.90
2023-04-10T17:52:46.805Z,10.90
2023-04-10T17:55:18.253Z,10.72
2023-04-10T17:57:46.869Z,10.55
2023-04-10T18:00:17.630Z,10.48
2023-04-10T18:02:44.980Z,10.40
2023-04-10T18:05:11.892Z,10.26
2023-04-10T18:07:38.740Z,10.17
2023-04-10T18:10:05.959Z,10.20
2023-04-10T18:12:32.364Z,10.07
2023-04-10T18:14:58.713Z,9.95
2023-04-10T18:17:25.072Z,10.06
2023-04-10T18:19:51.589Z,10.04
2023-04-10T18:22:18.503Z,10.35
2023-04-10T18:24:48.269Z,10.32
2023-04-10T18:27:14.700Z,10.36
2023-04-10T18:29:41.321Z,10.31
2023-04-10T18:32:07.699Z,10.36
2023-04-10T18:34:34.136Z,10.23
2023-04-10T18:37:00.423Z,10.15
2023-04-10T18:39:26.732Z,10.04
2023-04-10T18:41:53.037Z,9.97
2023-04-10T18:44:19.322Z,9.81
2023-04-10T18:46:48.592Z,9.74
2023-04-10T18:49:20.346Z,9.74
2023-04-10T18:51:46.618Z,9.43
2023-04-10T18:54:12.883Z,9.13
2023-04-10T18:56:39.659Z,8.87
2023-04-10T18:59:05.935Z,8.61
2023-04-10T19:01:32.352Z,8.45
2023-04-10T19:03:59.022Z,8.14
2023-04-10T19:06:26.989Z,8.04
2023-04-10T19:08:55.453Z,7.86
2023-04-10T19:11:21.752Z,8.08
2023-04-10T19:13:48.704Z,7.68
2023-04-10T19:16:19.079Z,7.59
2023-04-10T19:18:47.251Z,7.44
2023-04-10T19:21:14.118Z,7.41
2023-04-10T19:23:41.124Z,7.30
2023-04-10T19:26:08.577Z,7.24
2023-04-10T19:28:35.224Z,7.19
2023-04-10T19:31:09.978Z,7.11
2023-04-10T19:33:36.313Z,7.05
2023-04-10T19:36:02.623Z,7.03
2023-04-10T19:38:32.804Z,6.92
2023-04-10T19:40:59.182Z,6.83
2023-04-10T19:43:25.500Z,6.87
2023-04-10T19:45:52.993Z,6.85
2023-04-10T19:48:19.378Z,6.82
2023-04-10T19:50:45.688Z,6.79
2023-04-10T19:53:12.989Z,6.72
2023-04-10T19:55:43.466Z,6.93
2023-04-10T19:58:17.028Z,6.92
2023-04-10T20:00:52.019Z,6.77
2023-04-10T20:03:25.896Z,6.71
2023-04-10T20:05:53.611Z,6.59
2023-04-10T20:08:19.982Z,6.74
2023-04-10T20:10:46.251Z,6.75
2023-04-10T20:13:12.538Z,6.76
2023-04-10T20:15:38.838Z,6.72
2023-04-10T20:18:05.254Z,6.89
2023-04-10T20:20:31.641Z,6.84
2023-04-10T20:22:58.172Z,6.99
2023-04-10T20:25:31.728Z,6.91
2023-04-10T20:27:58.060Z,6.87
2023-04-10T20:30:24.357Z,6.94
2023-04-10T20:32:50.798Z,6.93
2023-04-10T20:35:17.228Z,7.04
2023-04-10T20:37:43.577Z,6.99
2023-04-10T20:40:10.008Z,7.01
2023-04-10T20:42:36.305Z,7.06
2023-04-10T20:45:03.108Z,7.10
2023-04-10T20:47:29.483Z,7.09
2023-04-10T20:49:55.860Z,7.09
2023-04-10T20:52:22.164Z,7.17
2023-04-10T20:54:48.425Z,7.21
2023-04-10T20:57:14.702Z,7.18
2023-04-10T20:59:41.159Z,7.17
2023-04-10T21:02:07.547Z,7.25
2023-04-10T21:04:33.988Z,7.37
2023-04-10T21:07:08.355Z,7.40
2023-04-10T21:09:34.650Z,7.82
2023-04-10T21:12:00.926Z,8.07
2023-04-10T21:14:27.216Z,8.32
2023-04-10T21:16:53.708Z,8.78
2023-04-10T21:19:20.169Z,9.03
2023-04-10T21:21:46.473Z,9.07
2023-04-10T21:24:12.765Z,9.11
2023-04-10T21:26:39.044Z,9.32
2023-04-10T21:29:05.356Z,9.49
2023-04-10T21:31:39.702Z,9.50
2023-04-10T21:34:06.091Z,9.62
2023-04-10T21:36:32.598Z,9.68
2023-04-10T21:38:58.891Z,9.82
2023-04-10T21:41:26.396Z,9.95
2023-04-10T21:43:56.384Z,9.99
2023-04-10T21:46:22.798Z,10.09
2023-04-10T21:48:49.098Z,10.22
2023-04-10T21:51:15.354Z,10.04
2023-04-10T21:53:41.628Z,9.93
2023-04-10T21:56:08.162Z,10.06
2023-04-10T21:58:34.827Z,10.20
2023-04-10T22:01:01.154Z,9.94
2023-04-10T22:03:27.626Z,10.15
2023-04-10T22:05:53.991Z,10.32
2023-04-10T22:08:20.371Z,10.48
2023-04-10T22:10:47.974Z,10.50
2023-04-10T22:13:27.347Z,10.47
2023-04-10T22:15:56.910Z,10.40
2023-04-10T22:18:23.259Z,10.47
2023-04-10T22:20:49.530Z,10.55
2023-04-10T22:23:15.816Z,10.84
2023-04-10T22:25:42.117Z,10.74
2023-04-10T22:28:08.420Z,10.68
2023-04-10T22:30:35.463Z,10.70
2023-04-10T22:33:01.949Z,10.48
2023-04-10T22:35:28.383Z,10.55
2023-04-10T22:37:55.339Z,10.69
2023-04-10T22:40:21.631Z,10.66
2023-04-10T22:42:48.516Z,10.56
2023-04-10T22:45:15.590Z,10.54
2023-04-10T22:47:41.874Z,10.39
2023-04-10T22:50:12.326Z,10.35
2023-04-10T22:52:38.643Z,10.54
2023-04-10T22:55:06.778Z,10.57
2023-04-10T22:57:33.535Z,10.53
2023-04-10T23:00:00.598Z,10.48
2023-04-10T23:02:27.467Z,10.35
2023-04-10T23:04:54.110Z,10.34
2023-04-10T23:07:20.428Z,10.36
2023-04-10T23:09:46.716Z,10.54
2023-04-10T23:12:13.031Z,10.50
2023-04-10T23:14:39.381Z,10.46
2023-04-10T23:17:05.781Z,10.56
2023-04-10T23:19:32.081Z,10.81
2023-04-10T23:21:58.394Z,10.83
2023-04-10T23:24:24.700Z,10.85
2023-04-10T23:26:50.978Z,10.79
2023-04-10T23:29:17.257Z,10.86
2023-04-10T23:31:43.919Z,11.01
2023-04-10T23:34:10.312Z,10.86
2023-04-10T23:36:36.661Z,10.86
2023-04-10T23:39:02.952Z,11.02
2023-04-10T23:41:29.237Z,10.93
2023-04-10T23:43:56.023Z,10.86
2023-04-10T23:46:22.345Z,10.83
2023-04-10T23:48:48.652Z,10.76
2023-04-10T23:51:14.968Z,10.69
2023-04-10T23:53:41.249Z,10.62
2023-04-10T23:56:07.840Z,10.54
2023-04-10T23:58:34.214Z,10.49
